createdAt,value
2019-03-03T00:01:40.024Z,20.07
2019-03-03T00:04:09.172Z,20.23
2019-03-03T00:06:38.287Z,20.30
2019-03-03T00:09:07.877Z,20.67
2019-03-03T00:11:38.660Z,20.30
2019-03-03T00:14:07.747Z,20.50
2019-03-03T00:16:36.857Z,20.50
2019-03-03T00:19:05.943Z,21.30
2019-03-03T00:21:35.223Z,19.53
2019-03-03T00:24:04.477Z,21.10
2019-03-03T00:26:33.561Z,19.60
2019-03-03T00:29:02.668Z,21.13
2019-03-03T00:31:38.848Z,21.73
2019-03-03T00:34:08.226Z,20.70
2019-03-03T00:37:14.875Z,20.63
2019-03-03T00:39:55.956Z,20.47
2019-03-03T00:42:35.155Z,21.47
2019-03-03T00:45:33.290Z,22.00
2019-03-03T00:48:09.900Z,20.67
2019-03-03T00:50:48.956Z,22.67
2019-03-03T00:53:29.187Z,21.27
2019-03-03T00:56:07.431Z,21.07
2019-03-03T00:58:47.759Z,20.00
2019-03-03T01:01:48.267Z,20.10
2019-03-03T01:04:23.019Z,21.20
2019-03-03T01:07:00.740Z,20.83
2019-03-03T01:09:47.649Z,20.57
2019-03-03T01:12:43.667Z,21.10
2019-03-03T01:15:38.026Z,20.07
2019-03-03T01:18:26.315Z,20.67
2019-03-03T01:20:59.484Z,19.93
2019-03-03T01:23:46.746Z,20.10
2019-03-03T01:26:16.252Z,18.90
2019-03-03T01:28:45.372Z,19.97
2019-03-03T01:31:14.466Z,19.37
2019-03-03T01:33:43.659Z,19.23
2019-03-03T01:36:12.731Z,19.00
2019-03-03T01:38:41.831Z,19.30
2019-03-03T01:41:11.969Z,19.27
2019-03-03T01:43:41.359Z,19.37
2019-03-03T01:46:10.451Z,18.90
2019-03-03T01:48:39.698Z,17.70
2019-03-03T01:51:08.792Z,18.70
2019-03-03T01:53:37.915Z,19.03
2019-03-03T01:56:07.015Z,18.17
2019-03-03T01:58:37.227Z,18.70
2019-03-03T02:01:06.348Z,17.13
2019-03-03T02:03:36.406Z,17.73
2019-03-03T02:06:06.731Z,17.80
2019-03-03T02:08:35.842Z,17.63
2019-03-03T02:11:05.602Z,16.60
2019-03-03T02:13:34.751Z,16.07
2019-03-03T02:16:05.821Z,15.60
2019-03-03T02:18:35.109Z,15.43
2019-03-03T02:21:04.301Z,15.17
2019-03-03T02:23:33.377Z,14.80
2019-03-03T02:26:02.569Z,15.03
2019-03-03T02:28:31.661Z,14.90
2019-03-03T02:31:00.786Z,14.03
2019-03-03T02:33:29.872Z,13.90
2019-03-03T02:35:59.014Z,14.10
2019-03-03T02:38:28.140Z,14.47
2019-03-03T02:40:57.583Z,13.43
2019-03-03T02:43:26.768Z,14.37
2019-03-03T02:45:55.946Z,14.10
2019-03-03T02:48:25.071Z,15.00
2019-03-03T02:50:54.185Z,13.97
2019-03-03T02:53:23.294Z,14.70
2019-03-03T02:55:52.776Z,13.30
2019-03-03T02:58:21.873Z,13.00
2019-03-03T03:00:56.620Z,12.63
2019-03-03T03:03:26.086Z,13.47
2019-03-03T03:06:02.727Z,12.40
2019-03-03T03:08:36.375Z,12.30
2019-03-03T03:11:13.547Z,12.80
2019-03-03T03:14:20.376Z,12.70
2019-03-03T03:17:05.688Z,10.90
2019-03-03T03:20:02.714Z,11.27
2019-03-03T03:22:42.703Z,10.43
2019-03-03T03:25:17.587Z,10.40
2019-03-03T03:27:54.714Z,9.73
2019-03-03T03:30:52.805Z,9.97
2019-03-03T03:33:30.809Z,8.80
2019-03-03T03:36:10.579Z,8.33
2019-03-03T03:38:58.468Z,8.87
2019-03-03T03:41:52.789Z,7.50
2019-03-03T03:44:44.114Z,7.30
2019-03-03T03:47:32.428Z,7.07
2019-03-03T03:50:14.417Z,7.37
2019-03-03T03:52:50.508Z,7.17
2019-03-03T03:55:38.865Z,6.67
2019-03-03T03:58:22.688Z,6.90
2019-03-03T04:01:15.505Z,6.30
2019-03-03T04:03:49.048Z,6.63
2019-03-03T04:06:36.404Z,5.70
2019-03-03T04:09:26.403Z,6.53
2019-03-03T04:12:13.679Z,5.60
2019-03-03T04:15:01.996Z,5.63
2019-03-03T04:17:56.112Z,5.60
2019-03-03T04:20:38.687Z,5.60
2019-03-03T04:23:36.122Z,4.70
2019-03-03T04:26:23.126Z,5.07
2019-03-03T04:29:23.370Z,5.33
2019-03-03T04:31:58.937Z,5.50
2019-03-03T04:34:53.250Z,4.40
2019-03-03T04:37:33.907Z,5.00
2019-03-03T04:40:27.593Z,5.03
2019-03-03T04:43:05.482Z,5.50
2019-03-03T04:45:45.003Z,5.20
2019-03-03T04:48:20.341Z,4.40
2019-03-03T04:51:07.304Z,4.93
2019-03-03T04:53:44.121Z,5.30
2019-03-03T04:56:35.372Z,5.00
2019-03-03T04:59:29.548Z,4.40
2019-03-03T05:02:06.326Z,4.60
2019-03-03T05:04:41.540Z,4.67
2019-03-03T05:07:19.049Z,5.20
2019-03-03T05:09:59.926Z,4.37
2019-03-03T05:13:06.532Z,5.20
2019-03-03T05:16:07.243Z,4.23
2019-03-03T05:18:50.266Z,4.47
2019-03-03T05:21:19.381Z,4.50
2019-03-03T05:23:48.475Z,4.50
2019-03-03T05:26:17.565Z,4.80
2019-03-03T05:28:46.657Z,4.93
2019-03-03T05:31:16.081Z,5.63
2019-03-03T05:33:45.191Z,5.87
2019-03-03T05:36:14.298Z,5.00
2019-03-03T05:38:43.402Z,4.90
2019-03-03T05:41:13.580Z,5.10
2019-03-03T05:43:42.677Z,4.70
2019-03-03T05:46:11.767Z,5.00
2019-03-03T05:48:40.898Z,4.63
2019-03-03T05:51:09.977Z,5.57
2019-03-03T05:53:39.062Z,5.33
2019-03-03T05:56:08.184Z,5.93
2019-03-03T05:58:37.292Z,5.70
2019-03-03T06:01:06.427Z,5.60
2019-03-03T06:03:35.507Z,4.93
2019-03-03T06:06:05.608Z,5.17
2019-03-03T06:08:34.704Z,4.60
2019-03-03T06:11:03.805Z,5.50
2019-03-03T06:13:32.925Z,4.77
2019-03-03T06:16:02.032Z,6.07
2019-03-03T06:18:31.144Z,5.97
2019-03-03T06:21:00.259Z,5.90
2019-03-03T06:23:29.358Z,5.73
2019-03-03T06:25:58.521Z,6.40
2019-03-03T06:28:27.701Z,6.00
2019-03-03T06:30:56.812Z,5.63
2019-03-03T06:33:25.991Z,5.23
2019-03-03T06:35:55.108Z,5.33
2019-03-03T06:38:24.211Z,5.33
2019-03-03T06:40:53.334Z,6.30
2019-03-03T06:43:23.494Z,5.40
2019-03-03T06:45:52.575Z,6.07
2019-03-03T06:48:21.683Z,5.67
2019-03-03T06:50:52.861Z,6.17
2019-03-03T06:53:21.591Z,5.10
2019-03-03T06:55:50.679Z,5.50
2019-03-03T06:58:19.776Z,4.97
2019-03-03T07:00:48.900Z,4.50
2019-03-03T07:03:18.597Z,5.90
2019-03-03T07:05:47.697Z,4.80
2019-03-03T07:08:16.814Z,4.97
2019-03-03T07:10:45.911Z,4.70
2019-03-03T07:13:15.068Z,4.27
2019-03-03T07:15:44.148Z,5.40
2019-03-03T07:18:13.322Z,5.07
2019-03-03T07:20:42.429Z,4.23
2019-03-03T07:23:11.531Z,4.60
2019-03-03T07:25:40.713Z,4.60
2019-03-03T07:28:09.840Z,4.70
2019-03-03T07:30:38.951Z,4.60
2019-03-03T07:33:16.247Z,4.83
2019-03-03T07:35:45.380Z,4.40
2019-03-03T07:38:14.557Z,3.83
2019-03-03T07:40:43.671Z,3.97
2019-03-03T07:43:12.762Z,4.30
2019-03-03T07:45:41.856Z,5.23
2019-03-03T07:48:11.239Z,4.37
2019-03-03T07:50:40.335Z,4.70
2019-03-03T07:53:09.427Z,4.40
2019-03-03T07:55:38.552Z,4.50
2019-03-03T07:58:07.942Z,5.10
2019-03-03T08:00:37.065Z,4.40
2019-03-03T08:03:06.160Z,4.30
2019-03-03T08:05:35.265Z,5.13
2019-03-03T08:08:05.196Z,3.70
2019-03-03T08:10:34.304Z,4.53
2019-03-03T08:13:09.164Z,3.90
2019-03-03T08:15:34.283Z,4.10
2019-03-03T08:18:03.378Z,4.10
2019-03-03T08:20:32.509Z,4.27
2019-03-03T08:23:01.593Z,4.10
2019-03-03T08:25:30.860Z,4.60
2019-03-03T08:28:00.826Z,4.60
2019-03-03T08:30:31.077Z,4.37
2019-03-03T08:33:00.336Z,4.70
2019-03-03T08:35:29.434Z,4.40
2019-03-03T08:37:58.538Z,4.50
2019-03-03T08:40:27.688Z,4.80
2019-03-03T08:43:06.944Z,4.00
2019-03-03T08:45:52.432Z,3.87
2019-03-03T08:48:41.322Z,4.30
2019-03-03T08:51:29.615Z,4.40
2019-03-03T08:54:06.196Z,4.47
2019-03-03T08:56:52.646Z,4.70
2019-03-03T08:59:26.247Z,4.90
2019-03-03T09:02:02.202Z,4.50
2019-03-03T09:04:46.079Z,4.40
2019-03-03T09:07:20.662Z,4.17
2019-03-03T09:10:14.915Z,4.57
2019-03-03T09:12:51.845Z,4.30
2019-03-03T09:15:52.270Z,4.93
2019-03-03T09:18:30.832Z,4.47
2019-03-03T09:21:06.481Z,3.80
2019-03-03T09:24:07.191Z,4.50
2019-03-03T09:27:05.416Z,4.60
2019-03-03T09:29:57.964Z,4.33
2019-03-03T09:32:36.923Z,4.63
2019-03-03T09:35:13.049Z,4.20
2019-03-03T09:37:50.241Z,4.27
2019-03-03T09:40:28.467Z,4.10
2019-03-03T09:43:12.617Z,4.10
2019-03-03T09:46:01.383Z,4.40
2019-03-03T09:48:59.164Z,3.80
2019-03-03T09:51:36.512Z,3.60
2019-03-03T09:54:23.631Z,3.77
2019-03-03T09:57:05.327Z,4.17
2019-03-03T09:59:51.815Z,3.77
2019-03-03T10:02:36.915Z,4.57
2019-03-03T10:05:16.829Z,3.77
2019-03-03T10:08:11.826Z,3.67
2019-03-03T10:11:00.532Z,4.37
2019-03-03T10:13:38.696Z,4.10
2019-03-03T10:16:15.708Z,4.57
2019-03-03T10:19:19.866Z,4.17
2019-03-03T10:21:58.117Z,4.50
2019-03-03T10:24:58.991Z,4.73
2019-03-03T10:27:38.388Z,4.70
2019-03-03T10:30:22.756Z,4.80
2019-03-03T10:33:01.728Z,4.43
2019-03-03T10:35:43.162Z,4.67
2019-03-03T10:38:35.886Z,4.63
2019-03-03T10:41:06.542Z,4.40
2019-03-03T10:43:46.183Z,5.13
2019-03-03T10:46:41.108Z,4.90
2019-03-03T10:49:18.988Z,5.30
2019-03-03T10:52:04.764Z,6.07
2019-03-03T10:54:59.547Z,6.33
2019-03-03T10:57:57.248Z,6.63
2019-03-03T11:00:48.823Z,6.63
2019-03-03T11:03:50.114Z,6.60
2019-03-03T11:06:49.244Z,6.97
2019-03-03T11:09:27.510Z,6.90
2019-03-03T11:12:13.511Z,6.60
2019-03-03T11:14:58.865Z,6.23
2019-03-03T11:17:45.402Z,5.97
2019-03-03T11:20:41.525Z,5.50
2019-03-03T11:23:39.464Z,4.63
2019-03-03T11:26:40.579Z,4.70
2019-03-03T11:29:15.751Z,5.03
2019-03-03T11:32:04.564Z,4.37
2019-03-03T11:34:59.504Z,4.60
2019-03-03T11:37:35.919Z,4.80
2019-03-03T11:40:17.799Z,7.33
2019-03-03T11:43:09.487Z,5.83
2019-03-03T11:45:53.672Z,6.23
2019-03-03T11:48:38.022Z,5.13
2019-03-03T11:51:11.423Z,5.20
2019-03-03T11:53:53.821Z,6.23
2019-03-03T11:56:38.505Z,5.33
2019-03-03T11:59:17.916Z,6.13
2019-03-03T12:02:18.729Z,6.13
2019-03-03T12:05:00.552Z,4.80
2019-03-03T12:08:08.072Z,5.20
2019-03-03T12:10:56.980Z,4.73
2019-03-03T12:13:48.572Z,4.07
2019-03-03T12:16:25.323Z,4.50
2019-03-03T12:19:03.745Z,4.30
2019-03-03T12:21:58.119Z,4.47
2019-03-03T12:24:37.139Z,3.73
2019-03-03T12:27:25.936Z,3.70
2019-03-03T12:30:02.860Z,4.20
2019-03-03T12:32:38.526Z,4.17
2019-03-03T12:35:28.808Z,3.40
2019-03-03T12:38:14.912Z,3.77
2019-03-03T12:40:54.240Z,4.30
2019-03-03T12:43:54.903Z,4.20
2019-03-03T12:46:44.872Z,5.10
2019-03-03T12:49:24.436Z,4.40
2019-03-03T12:52:00.064Z,5.10
2019-03-03T12:54:47.295Z,5.03
2019-03-03T12:57:36.666Z,4.43
2019-03-03T13:00:25.110Z,5.00
2019-03-03T13:03:19.372Z,4.70
2019-03-03T13:06:09.288Z,4.60
2019-03-03T13:08:59.304Z,4.30
2019-03-03T13:11:31.432Z,4.80
2019-03-03T13:14:18.916Z,3.37
2019-03-03T13:16:59.625Z,4.20
2019-03-03T13:19:51.471Z,4.40
2019-03-03T13:22:33.855Z,4.23
2019-03-03T13:25:11.155Z,3.83
2019-03-03T13:28:02.303Z,4.07
2019-03-03T13:30:41.485Z,3.90
2019-03-03T13:33:37.947Z,4.40
2019-03-03T13:36:28.573Z,4.30
2019-03-03T13:39:14.740Z,4.70
2019-03-03T13:41:49.774Z,4.80
2019-03-03T13:44:19.872Z,4.40
2019-03-03T13:46:49.063Z,5.00
2019-03-03T13:49:18.223Z,4.40
2019-03-03T13:51:47.343Z,4.20
2019-03-03T13:54:16.484Z,4.30
2019-03-03T13:56:45.605Z,4.23
2019-03-03T13:59:14.756Z,4.33
2019-03-03T14:01:43.882Z,4.70
2019-03-03T14:04:13.088Z,3.97
2019-03-03T14:06:42.678Z,4.40
2019-03-03T14:09:12.545Z,3.93
2019-03-03T14:11:42.137Z,3.83
2019-03-03T14:14:11.958Z,3.70
2019-03-03T14:16:41.552Z,3.37
2019-03-03T14:19:11.240Z,3.17
2019-03-03T14:21:41.109Z,2.90
2019-03-03T14:24:10.776Z,2.93
2019-03-03T14:26:40.772Z,2.70
2019-03-03T14:29:10.442Z,2.60
2019-03-03T14:31:40.073Z,3.00
2019-03-03T14:34:09.664Z,2.10
2019-03-03T14:36:39.344Z,3.43
2019-03-03T14:39:09.440Z,2.43
2019-03-03T14:41:40.329Z,2.43
2019-03-03T14:44:10.000Z,2.23
2019-03-03T14:46:39.652Z,2.63
2019-03-03T14:49:09.323Z,2.60
2019-03-03T14:51:39.103Z,2.37
2019-03-03T14:54:08.818Z,2.50
2019-03-03T14:56:38.432Z,2.70
2019-03-03T14:59:08.051Z,2.27
2019-03-03T15:01:37.665Z,2.27
2019-03-03T15:04:07.273Z,2.00
2019-03-03T15:06:36.920Z,2.20
2019-03-03T15:09:15.212Z,2.60
2019-03-03T15:11:44.965Z,2.13
2019-03-03T15:14:14.614Z,2.43
2019-03-03T15:16:44.260Z,2.20
2019-03-03T15:19:14.071Z,2.27
2019-03-03T15:21:43.828Z,2.63
2019-03-03T15:24:13.629Z,3.70
2019-03-03T15:26:43.311Z,2.90
2019-03-03T15:29:12.928Z,3.07
2019-03-03T15:31:42.571Z,3.30
2019-03-03T15:34:12.191Z,3.10
2019-03-03T15:36:41.888Z,2.90
2019-03-03T15:39:11.871Z,3.17
2019-03-03T15:41:41.864Z,3.43
2019-03-03T15:44:11.531Z,3.00
2019-03-03T15:46:41.164Z,2.60
2019-03-03T15:49:11.034Z,2.70
2019-03-03T15:51:40.955Z,2.80
2019-03-03T15:54:10.841Z,2.70
2019-03-03T15:56:40.472Z,2.50
2019-03-03T15:59:10.218Z,2.60
2019-03-03T16:01:39.913Z,2.80
2019-03-03T16:04:09.580Z,2.70
2019-03-03T16:06:39.690Z,3.03
2019-03-03T16:09:12.648Z,2.60
2019-03-03T16:11:42.350Z,3.20
2019-03-03T16:14:12.135Z,3.30
2019-03-03T16:16:41.767Z,3.10
2019-03-03T16:19:11.429Z,3.20
2019-03-03T16:21:53.739Z,3.43
2019-03-03T16:24:23.335Z,3.90
2019-03-03T16:26:52.980Z,3.53
2019-03-03T16:29:22.587Z,3.30
2019-03-03T16:31:52.333Z,4.23
2019-03-03T16:34:21.989Z,4.07
2019-03-03T16:36:51.681Z,4.00
2019-03-03T16:39:21.291Z,3.90
2019-03-03T16:41:50.936Z,11.80
2019-03-03T16:44:20.539Z,13.73
2019-03-03T16:46:50.153Z,3.73
2019-03-03T16:49:19.776Z,4.00
2019-03-03T16:51:49.472Z,4.00
2019-03-03T16:54:19.072Z,3.83
2019-03-03T16:56:48.712Z,4.40
2019-03-03T16:59:18.326Z,4.60
2019-03-03T17:01:48.351Z,4.17
2019-03-03T17:04:17.981Z,4.03
2019-03-03T17:06:47.623Z,4.30
2019-03-03T17:09:17.570Z,3.70
2019-03-03T17:11:47.190Z,4.00
2019-03-03T17:14:16.800Z,3.63
2019-03-03T17:16:48.265Z,3.70
2019-03-03T17:19:17.872Z,4.77
2019-03-03T17:21:47.484Z,3.70
2019-03-03T17:24:17.166Z,3.67
2019-03-03T17:26:46.810Z,3.70
2019-03-03T17:29:16.413Z,4.13
2019-03-03T17:31:46.035Z,4.63
2019-03-03T17:34:15.667Z,4.13
2019-03-03T17:36:45.300Z,3.80
2019-03-03T17:39:15.224Z,3.80
2019-03-03T17:41:44.921Z,4.53
2019-03-03T17:44:14.511Z,4.20
2019-03-03T17:46:44.435Z,4.20
2019-03-03T17:49:15.109Z,4.13
2019-03-03T17:51:45.120Z,4.30
2019-03-03T17:54:14.734Z,4.17
2019-03-03T17:56:44.375Z,4.03
2019-03-03T17:59:14.052Z,4.57
2019-03-03T18:01:43.703Z,4.07
2019-03-03T18:04:13.391Z,4.63
2019-03-03T18:06:43.099Z,4.70
2019-03-03T18:09:12.876Z,4.90
2019-03-03T18:11:42.496Z,4.90
2019-03-03T18:14:12.436Z,5.20
2019-03-03T18:16:42.039Z,5.87
2019-03-03T18:19:11.643Z,5.60
2019-03-03T18:21:41.252Z,5.83
2019-03-03T18:24:10.886Z,5.73
2019-03-03T18:26:40.824Z,6.40
2019-03-03T18:29:10.460Z,5.57
2019-03-03T18:31:40.490Z,7.30
2019-03-03T18:34:10.434Z,6.70
2019-03-03T18:36:40.036Z,7.57
2019-03-03T18:39:10.244Z,7.13
2019-03-03T18:41:40.108Z,8.10
2019-03-03T18:44:10.301Z,7.00
2019-03-03T18:46:41.638Z,6.53
2019-03-03T18:49:11.466Z,7.80
2019-03-03T18:51:41.070Z,7.07
2019-03-03T18:54:10.672Z,7.30
2019-03-03T18:56:40.284Z,8.00
2019-03-03T18:59:10.891Z,7.60
2019-03-03T19:01:40.696Z,7.57
2019-03-03T19:04:10.354Z,7.80
2019-03-03T19:06:39.962Z,8.27
2019-03-03T19:09:12.767Z,7.80
2019-03-03T19:11:43.550Z,7.57
2019-03-03T19:14:13.202Z,8.00
2019-03-03T19:16:42.867Z,8.73
2019-03-03T19:19:12.467Z,8.30
2019-03-03T19:21:42.081Z,8.17
2019-03-03T19:24:11.771Z,8.83
2019-03-03T19:26:41.419Z,8.60
2019-03-03T19:29:11.322Z,8.53
2019-03-03T19:31:41.004Z,9.07
2019-03-03T19:34:11.927Z,8.97
2019-03-03T19:36:41.883Z,9.60
2019-03-03T19:39:11.510Z,8.23
2019-03-03T19:41:42.624Z,8.43
2019-03-03T19:44:12.239Z,9.10
2019-03-03T19:46:41.925Z,8.77
2019-03-03T19:49:11.569Z,9.07
2019-03-03T19:51:41.349Z,8.77
2019-03-03T19:54:11.068Z,9.97
2019-03-03T19:56:41.652Z,8.90
2019-03-03T19:59:12.492Z,9.87
2019-03-03T20:01:42.105Z,9.70
2019-03-03T20:04:11.736Z,10.80
2019-03-03T20:06:41.416Z,9.80
2019-03-03T20:09:12.287Z,9.77
2019-03-03T20:11:45.473Z,11.10
2019-03-03T20:14:14.378Z,11.07
2019-03-03T20:16:44.165Z,10.60
2019-03-03T20:19:13.821Z,10.93
2019-03-03T20:21:43.501Z,11.60
2019-03-03T20:24:13.324Z,10.93
2019-03-03T20:26:43.021Z,11.50
2019-03-03T20:29:14.187Z,12.10
2019-03-03T20:31:43.801Z,11.90
2019-03-03T20:34:13.433Z,12.07
2019-03-03T20:36:43.073Z,13.43
2019-03-03T20:39:13.430Z,12.80
2019-03-03T20:41:43.123Z,13.13
2019-03-03T20:44:13.037Z,13.70
2019-03-03T20:46:42.658Z,14.57
2019-03-03T20:49:12.279Z,13.00
2019-03-03T20:51:41.883Z,14.83
2019-03-03T20:54:11.508Z,14.07
2019-03-03T20:56:41.143Z,13.37
2019-03-03T20:59:10.753Z,14.80
2019-03-03T21:01:40.376Z,14.80
2019-03-03T21:04:09.988Z,14.07
2019-03-03T21:06:39.600Z,14.10
2019-03-03T21:09:10.056Z,15.10
2019-03-03T21:11:40.940Z,13.67
2019-03-03T21:14:10.587Z,13.93
2019-03-03T21:16:40.215Z,14.43
2019-03-03T21:19:09.844Z,14.10
2019-03-03T21:21:39.808Z,12.90
2019-03-03T21:24:09.423Z,13.37
2019-03-03T21:26:39.059Z,12.97
2019-03-03T21:29:08.685Z,12.20
2019-03-03T21:31:38.312Z,12.07
2019-03-03T21:34:07.940Z,12.90
2019-03-03T21:36:37.835Z,11.37
2019-03-03T21:39:08.217Z,11.20
2019-03-03T21:41:38.115Z,11.57
2019-03-03T21:44:07.732Z,10.97
2019-03-03T21:46:37.347Z,11.60
2019-03-03T21:49:06.983Z,10.77
2019-03-03T21:51:36.619Z,10.70
2019-03-03T21:54:06.275Z,9.97
2019-03-03T21:56:35.903Z,10.13
2019-03-03T21:59:05.761Z,10.53
2019-03-03T22:01:35.413Z,10.47
2019-03-03T22:04:05.245Z,10.20
2019-03-03T22:06:34.917Z,10.23
2019-03-03T22:09:07.716Z,10.10
2019-03-03T22:11:38.975Z,10.17
2019-03-03T22:14:08.629Z,10.10
2019-03-03T22:16:38.249Z,9.30
2019-03-03T22:19:08.196Z,8.60
2019-03-03T22:21:38.090Z,9.27
2019-03-03T22:24:07.723Z,9.03
2019-03-03T22:26:37.323Z,9.17
2019-03-03T22:29:06.971Z,8.90
2019-03-03T22:31:36.577Z,8.50
2019-03-03T22:34:06.517Z,8.80
2019-03-03T22:36:36.131Z,8.10
2019-03-03T22:39:08.158Z,8.13
2019-03-03T22:41:38.836Z,8.20
2019-03-03T22:44:08.489Z,7.67
2019-03-03T22:46:38.096Z,7.60
2019-03-03T22:49:07.713Z,7.53
2019-03-03T22:51:37.321Z,7.77
2019-03-03T22:54:06.998Z,7.17
2019-03-03T22:56:36.698Z,7.70
2019-03-03T22:59:06.669Z,7.30
2019-03-03T23:01:40.231Z,6.90
2019-03-03T23:04:47.272Z,6.60
2019-03-03T23:07:27.635Z,7.70
2019-03-03T23:10:34.933Z,7.27
2019-03-03T23:13:34.843Z,7.80
2019-03-03T23:16:33.728Z,6.90
2019-03-03T23:19:38.377Z,8.27
2019-03-03T23:22:22.083Z,7.73
2019-03-03T23:25:05.252Z,8.37
2019-03-03T23:27:35.030Z,6.67
2019-03-03T23:30:06.165Z,6.80
2019-03-03T23:32:35.868Z,6.20
2019-03-03T23:35:05.907Z,6.50
2019-03-03T23:37:35.527Z,6.13
2019-03-03T23:40:05.432Z,6.30
2019-03-03T23:42:35.031Z,6.40
2019-03-03T23:45:05.825Z,6.50
2019-03-03T23:47:36.883Z,6.77
2019-03-03T23:50:06.637Z,6.10
2019-03-03T23:52:36.275Z,6.20
2019-03-03T23:55:06.051Z,6.00
2019-03-03T23:57:35.735Z,7.10
